Hlavní strana
METAR-TAF:

METAR-TAF

Letiště :

Bowman Field

Louisville, Kentucky, Spojené státy americké

zeměpisná šířka: 38-13-40N, zeměpisná délka: 085-39-49W, výška: 166 m

Aktuální stav počasí

Zpráva byla vytvořena před 21 minutami, v 04:53 UTC
Západoseverozápadní vítr 5 kt
Teplota 23°C
Vlhkost vzduchu 89%
Tlak 1015 hPa
Viditelnost: 16.1 km
Oblačno až skoro zataženo ve výšce 3900 ft

METAR: KLOU 220453Z AUTO 29005KT 10SM BKN039 23/21 A2997 RMK AO2 SLP144 T02280211 402830222

Čas: 01:14 (05:14 UTC)


TAF: chybějící

Stav a předpovědi počasí z více než 4 000 letišť (zprávy METAR a TAF).

Červené a žluté tečky na mapě představují dostupné meteorologické stanice.

Když kurzor umístíte na tečku, zobrazí se název stanice.

Pak kliknutím zobrazíte stav a předpověď počasí.

Chcete-li změnit mapu, kliknutím na zelené tlačítko se znaménkem +mapu přiblížíte, kliknutím na zelené tlačítko se znaménkem – mapu oddálíte a kliknutím na zelené šipky přejdete na sousední mapy.


METAR-TAF: